sensor_id;sensor_type;location;lat;lon;timestamp;temperature;humidity
12885;DHT22;6510;51.362;7.370;2022-09-12T00:01:21;12.50;99.90
12885;DHT22;6510;51.362;7.370;2022-09-12T00:03:49;12.50;99.90
12885;DHT22;6510;51.362;7.370;2022-09-12T00:06:21;12.50;99.90
12885;DHT22;6510;51.362;7.370;2022-09-12T00:08:47;12.50;99.90
12885;DHT22;6510;51.362;7.370;2022-09-12T00:11:13;12.50;99.90
12885;DHT22;6510;51.362;7.370;2022-09-12T00:13:40;12.50;99.90
12885;DHT22;6510;51.362;7.370;2022-09-12T00:16:06;12.30;99.90
12885;DHT22;6510;51.362;7.370;2022-09-12T00:18:32;12.30;99.90
12885;DHT22;6510;51.362;7.370;2022-09-12T00:21:02;12.40;99.90
12885;DHT22;6510;51.362;7.370;2022-09-12T00:23:29;12.50;99.90
12885;DHT22;6510;51.362;7.370;2022-09-12T00:25:55;12.60;99.90
12885;DHT22;6510;51.362;7.370;2022-09-12T00:28:20;12.50;99.90
12885;DHT22;6510;51.362;7.370;2022-09-12T00:30:47;12.30;99.90
12885;DHT22;6510;51.362;7.370;2022-09-12T00:33:15;12.30;99.90
12885;DHT22;6510;51.362;7.370;2022-09-12T00:35:49;12.30;99.90
12885;DHT22;6510;51.362;7.370;2022-09-12T00:38:18;12.40;99.90
12885;DHT22;6510;51.362;7.370;2022-09-12T00:40:44;12.50;99.90
12885;DHT22;6510;51.362;7.370;2022-09-12T00:45:40;12.40;99.90
12885;DHT22;6510;51.362;7.370;2022-09-12T00:48:15;12.40;99.90
12885;DHT22;6510;51.362;7.370;2022-09-12T00:50:42;12.40;99.90
12885;DHT22;6510;51.362;7.370;2022-09-12T00:53:08;12.50;99.90
12885;DHT22;6510;51.362;7.370;2022-09-12T00:55:52;12.50;99.90
12885;DHT22;6510;51.362;7.370;2022-09-12T00:58:28;12.40;99.90
12885;DHT22;6510;51.362;7.370;2022-09-12T01:00:56;12.40;99.90
12885;DHT22;6510;51.362;7.370;2022-09-12T01:03:23;12.50;99.90
12885;DHT22;6510;51.362;7.370;2022-09-12T01:05:58;12.50;99.90
12885;DHT22;6510;51.362;7.370;2022-09-12T01:08:27;12.50;99.90
12885;DHT22;6510;51.362;7.370;2022-09-12T01:10:53;12.40;99.90
12885;DHT22;6510;51.362;7.370;2022-09-12T01:13:19;12.40;99.90
12885;DHT22;6510;51.362;7.370;2022-09-12T01:15:45;12.20;99.90
12885;DHT22;6510;51.362;7.370;2022-09-12T01:21:35;12.00;99.90
12885;DHT22;6510;51.362;7.370;2022-09-12T01:24:22;11.90;99.90
12885;DHT22;6510;51.362;7.370;2022-09-12T01:35:41;11.80;99.90
12885;DHT22;6510;51.362;7.370;2022-09-12T01:38:24;11.90;99.90
12885;DHT22;6510;51.362;7.370;2022-09-12T01:46:12;11.80;99.90
12885;DHT22;6510;51.362;7.370;2022-09-12T01:49:01;12.10;99.90
12885;DHT22;6510;51.362;7.370;2022-09-12T01:51:43;12.20;99.90
12885;DHT22;6510;51.362;7.370;2022-09-12T01:54:18;12.30;99.90
12885;DHT22;6510;51.362;7.370;2022-09-12T01:56:47;12.50;99.90
12885;DHT22;6510;51.362;7.370;2022-09-12T01:59:34;12.50;99.90
12885;DHT22;6510;51.362;7.370;2022-09-12T02:02:11;12.50;99.90
12885;DHT22;6510;51.362;7.370;2022-09-12T02:08:05;12.60;99.90
12885;DHT22;6510;51.362;7.370;2022-09-12T02:10:37;12.70;99.90
12885;DHT22;6510;51.362;7.370;2022-09-12T02:13:14;12.70;99.90
12885;DHT22;6510;51.362;7.370;2022-09-12T02:15:46;12.70;99.90
12885;DHT22;6510;51.362;7.370;2022-09-12T02:18:15;12.60;99.90
12885;DHT22;6510;51.362;7.370;2022-09-12T02:20:44;12.40;99.90
12885;DHT22;6510;51.362;7.370;2022-09-12T02:23:20;12.30;99.90
12885;DHT22;6510;51.362;7.370;2022-09-12T02:25:50;12.10;99.90
12885;DHT22;6510;51.362;7.370;2022-09-12T02:28:21;11.90;99.90
12885;DHT22;6510;51.362;7.370;2022-09-12T02:33:56;11.80;99.90
12885;DHT22;6510;51.362;7.370;2022-09-12T02:39:15;11.90;99.90
12885;DHT22;6510;51.362;7.370;2022-09-12T02:41:46;12.00;99.90
12885;DHT22;6510;51.362;7.370;2022-09-12T02:44:12;12.20;99.90
12885;DHT22;6510;51.362;7.370;2022-09-12T02:46:41;12.30;99.90
12885;DHT22;6510;51.362;7.370;2022-09-12T02:49:08;12.30;99.90
12885;DHT22;6510;51.362;7.370;2022-09-12T02:51:34;12.30;99.90
12885;DHT22;6510;51.362;7.370;2022-09-12T02:54:00;12.30;99.90
12885;DHT22;6510;51.362;7.370;2022-09-12T02:56:29;12.40;99.90
12885;DHT22;6510;51.362;7.370;2022-09-12T02:59:00;12.20;99.90
12885;DHT22;6510;51.362;7.370;2022-09-12T03:01:43;12.10;99.90
12885;DHT22;6510;51.362;7.370;2022-09-12T03:04:30;12.10;99.90
12885;DHT22;6510;51.362;7.370;2022-09-12T03:10:02;12.00;99.90
12885;DHT22;6510;51.362;7.370;2022-09-12T03:15:39;11.90;99.90
12885;DHT22;6510;51.362;7.370;2022-09-12T03:21:10;11.80;99.90
12885;DHT22;6510;51.362;7.370;2022-09-12T03:23:56;11.90;99.90
12885;DHT22;6510;51.362;7.370;2022-09-12T03:28:59;12.00;99.90
12885;DHT22;6510;51.362;7.370;2022-09-12T03:31:26;12.00;99.90
12885;DHT22;6510;51.362;7.370;2022-09-12T03:33:52;12.00;99.90
12885;DHT22;6510;51.362;7.370;2022-09-12T03:36:24;12.00;99.90
12885;DHT22;6510;51.362;7.370;2022-09-12T03:38:50;12.10;99.90
12885;DHT22;6510;51.362;7.370;2022-09-12T03:41:15;12.20;99.90
12885;DHT22;6510;51.362;7.370;2022-09-12T03:43:42;12.30;99.90
12885;DHT22;6510;51.362;7.370;2022-09-12T03:46:07;12.30;99.90
12885;DHT22;6510;51.362;7.370;2022-09-12T03:48:33;12.20;99.90
12885;DHT22;6510;51.362;7.370;2022-09-12T03:51:00;12.20;99.90
12885;DHT22;6510;51.362;7.370;2022-09-12T03:53:26;12.20;99.90
12885;DHT22;6510;51.362;7.370;2022-09-12T03:55:52;12.10;99.90
12885;DHT22;6510;51.362;7.370;2022-09-12T03:58:17;12.10;99.90
12885;DHT22;6510;51.362;7.370;2022-09-12T04:00:43;12.00;99.90
12885;DHT22;6510;51.362;7.370;2022-09-12T04:03:09;12.10;99.90
12885;DHT22;6510;51.362;7.370;2022-09-12T04:05:35;12.20;99.90
12885;DHT22;6510;51.362;7.370;2022-09-12T04:08:01;12.20;99.90
12885;DHT22;6510;51.362;7.370;2022-09-12T04:10:26;12.20;99.90
12885;DHT22;6510;51.362;7.370;2022-09-12T04:12:52;12.20;99.90
12885;DHT22;6510;51.362;7.370;2022-09-12T04:15:18;12.20;99.90
12885;DHT22;6510;51.362;7.370;2022-09-12T04:17:44;12.10;99.90
12885;DHT22;6510;51.362;7.370;2022-09-12T04:20:09;12.20;99.90
12885;DHT22;6510;51.362;7.370;2022-09-12T04:22:35;12.20;99.90
12885;DHT22;6510;51.362;7.370;2022-09-12T04:25:01;12.10;99.90
12885;DHT22;6510;51.362;7.370;2022-09-12T04:27:27;12.10;99.90
12885;DHT22;6510;51.362;7.370;2022-09-12T04:29:53;12.20;99.90
12885;DHT22;6510;51.362;7.370;2022-09-12T04:32:20;12.20;99.90
12885;DHT22;6510;51.362;7.370;2022-09-12T04:34:47;12.40;99.90
12885;DHT22;6510;51.362;7.370;2022-09-12T04:37:13;12.40;99.90
12885;DHT22;6510;51.362;7.370;2022-09-12T04:39:38;12.50;99.90
12885;DHT22;6510;51.362;7.370;2022-09-12T04:42:05;12.50;99.90
12885;DHT22;6510;51.362;7.370;2022-09-12T04:44:30;12.30;99.90
12885;DHT22;6510;51.362;7.370;2022-09-12T04:46:56;12.40;99.90
12885;DHT22;6510;51.362;7.370;2022-09-12T04:49:22;12.40;99.90
12885;DHT22;6510;51.362;7.370;2022-09-12T04:51:48;12.40;99.90
12885;DHT22;6510;51.362;7.370;2022-09-12T04:54:16;12.40;99.90
12885;DHT22;6510;51.362;7.370;2022-09-12T04:56:44;12.40;99.90
12885;DHT22;6510;51.362;7.370;2022-09-12T04:59:11;12.40;99.90
12885;DHT22;6510;51.362;7.370;2022-09-12T05:01:38;12.30;99.90
12885;DHT22;6510;51.362;7.370;2022-09-12T05:04:04;12.30;99.90
12885;DHT22;6510;51.362;7.370;2022-09-12T05:06:32;12.20;99.90
12885;DHT22;6510;51.362;7.370;2022-09-12T05:08:59;12.30;99.90
12885;DHT22;6510;51.362;7.370;2022-09-12T05:11:28;12.30;99.90
12885;DHT22;6510;51.362;7.370;2022-09-12T05:13:54;12.30;99.90
12885;DHT22;6510;51.362;7.370;2022-09-12T05:16:21;12.30;99.90
12885;DHT22;6510;51.362;7.370;2022-09-12T05:18:47;12.40;99.90
12885;DHT22;6510;51.362;7.370;2022-09-12T05:21:18;12.50;99.90
12885;DHT22;6510;51.362;7.370;2022-09-12T05:23:44;12.50;99.90
12885;DHT22;6510;51.362;7.370;2022-09-12T05:26:14;12.40;99.90
12885;DHT22;6510;51.362;7.370;2022-09-12T05:28:40;12.60;99.90
12885;DHT22;6510;51.362;7.370;2022-09-12T05:31:21;12.60;99.90
12885;DHT22;6510;51.362;7.370;2022-09-12T05:33:48;12.70;99.90
12885;DHT22;6510;51.362;7.370;2022-09-12T05:36:17;13.00;99.90
12885;DHT22;6510;51.362;7.370;2022-09-12T05:38:47;13.10;99.90
12885;DHT22;6510;51.362;7.370;2022-09-12T05:41:18;13.10;99.90
12885;DHT22;6510;51.362;7.370;2022-09-12T05:43:45;13.20;99.90
12885;DHT22;6510;51.362;7.370;2022-09-12T05:48:39;13.40;99.90
12885;DHT22;6510;51.362;7.370;2022-09-12T05:51:17;13.50;99.90
12885;DHT22;6510;51.362;7.370;2022-09-12T05:53:54;13.60;99.90
12885;DHT22;6510;51.362;7.370;2022-09-12T05:56:26;13.70;99.90
12885;DHT22;6510;51.362;7.370;2022-09-12T05:58:56;13.80;99.90
12885;DHT22;6510;51.362;7.370;2022-09-12T06:01:22;13.90;99.90
12885;DHT22;6510;51.362;7.370;2022-09-12T06:03:51;14.00;99.90
12885;DHT22;6510;51.362;7.370;2022-09-12T06:06:19;14.10;99.90
12885;DHT22;6510;51.362;7.370;2022-09-12T06:08:47;14.30;99.90
12885;DHT22;6510;51.362;7.370;2022-09-12T06:11:16;14.20;99.90
12885;DHT22;6510;51.362;7.370;2022-09-12T06:13:42;14.30;99.90
12885;DHT22;6510;51.362;7.370;2022-09-12T06:16:20;14.30;99.90
12885;DHT22;6510;51.362;7.370;2022-09-12T06:18:54;14.40;99.90
12885;DHT22;6510;51.362;7.370;2022-09-12T06:21:20;14.70;99.90
12885;DHT22;6510;51.362;7.370;2022-09-12T06:23:47;15.00;99.90
12885;DHT22;6510;51.362;7.370;2022-09-12T06:26:14;15.50;99.90
12885;DHT22;6510;51.362;7.370;2022-09-12T06:28:42;15.90;99.90
12885;DHT22;6510;51.362;7.370;2022-09-12T06:31:17;16.40;99.90
12885;DHT22;6510;51.362;7.370;2022-09-12T06:33:46;17.30;99.90
12885;DHT22;6510;51.362;7.370;2022-09-12T06:36:15;18.00;99.90
12885;DHT22;6510;51.362;7.370;2022-09-12T06:38:41;17.80;99.90
12885;DHT22;6510;51.362;7.370;2022-09-12T06:41:09;17.60;99.90
12885;DHT22;6510;51.362;7.370;2022-09-12T06:43:37;17.00;99.90
12885;DHT22;6510;51.362;7.370;2022-09-12T06:46:03;16.70;99.90
12885;DHT22;6510;51.362;7.370;2022-09-12T06:48:29;16.70;99.90
12885;DHT22;6510;51.362;7.370;2022-09-12T06:50:56;16.90;99.90
12885;DHT22;6510;51.362;7.370;2022-09-12T06:53:23;16.80;99.90
12885;DHT22;6510;51.362;7.370;2022-09-12T06:55:59;17.10;99.90
12885;DHT22;6510;51.362;7.370;2022-09-12T06:58:26;16.90;99.90
12885;DHT22;6510;51.362;7.370;2022-09-12T07:00:52;16.90;99.90
12885;DHT22;6510;51.362;7.370;2022-09-12T07:03:18;17.00;99.90
12885;DHT22;6510;51.362;7.370;2022-09-12T07:05:45;17.10;99.90
12885;DHT22;6510;51.362;7.370;2022-09-12T07:08:10;17.40;99.90
12885;DHT22;6510;51.362;7.370;2022-09-12T07:10:36;17.50;99.90
12885;DHT22;6510;51.362;7.370;2022-09-12T07:13:01;17.80;99.90
12885;DHT22;6510;51.362;7.370;2022-09-12T07:15:27;18.20;99.90
12885;DHT22;6510;51.362;7.370;2022-09-12T07:17:53;19.30;99.90
12885;DHT22;6510;51.362;7.370;2022-09-12T07:20:19;19.50;99.90
12885;DHT22;6510;51.362;7.370;2022-09-12T07:22:44;19.10;99.90
12885;DHT22;6510;51.362;7.370;2022-09-12T07:25:11;18.40;99.90
12885;DHT22;6510;51.362;7.370;2022-09-12T07:27:36;18.30;99.90
12885;DHT22;6510;51.362;7.370;2022-09-12T07:30:04;18.40;99.90
12885;DHT22;6510;51.362;7.370;2022-09-12T07:32:30;18.20;99.90
12885;DHT22;6510;51.362;7.370;2022-09-12T07:34:56;17.70;99.90
12885;DHT22;6510;51.362;7.370;2022-09-12T07:37:21;17.80;99.90
12885;DHT22;6510;51.362;7.370;2022-09-12T07:39:47;17.90;99.90
12885;DHT22;6510;51.362;7.370;2022-09-12T07:42:12;18.10;99.90
12885;DHT22;6510;51.362;7.370;2022-09-12T07:44:39;17.90;99.90
12885;DHT22;6510;51.362;7.370;2022-09-12T07:47:04;17.90;99.90
12885;DHT22;6510;51.362;7.370;2022-09-12T07:49:30;17.80;99.90
12885;DHT22;6510;51.362;7.370;2022-09-12T07:51:56;17.80;99.90
12885;DHT22;6510;51.362;7.370;2022-09-12T07:54:22;17.90;99.90
12885;DHT22;6510;51.362;7.370;2022-09-12T07:56:47;17.80;99.90
12885;DHT22;6510;51.362;7.370;2022-09-12T07:59:14;17.90;99.90
12885;DHT22;6510;51.362;7.370;2022-09-12T08:01:40;17.70;99.90
12885;DHT22;6510;51.362;7.370;2022-09-12T08:04:06;17.90;99.90
12885;DHT22;6510;51.362;7.370;2022-09-12T08:09:07;18.00;99.90
12885;DHT22;6510;51.362;7.370;2022-09-12T08:11:33;18.00;99.90
12885;DHT22;6510;51.362;7.370;2022-09-12T08:13:59;18.00;99.90
12885;DHT22;6510;51.362;7.370;2022-09-12T08:16:29;18.10;99.90
12885;DHT22;6510;51.362;7.370;2022-09-12T08:18:59;18.20;99.90
12885;DHT22;6510;51.362;7.370;2022-09-12T08:21:28;18.20;99.90
12885;DHT22;6510;51.362;7.370;2022-09-12T08:24:02;18.40;99.90
12885;DHT22;6510;51.362;7.370;2022-09-12T08:26:29;18.70;99.90
12885;DHT22;6510;51.362;7.370;2022-09-12T08:28:58;18.50;99.90
12885;DHT22;6510;51.362;7.370;2022-09-12T08:31:29;19.00;99.90
12885;DHT22;6510;51.362;7.370;2022-09-12T08:34:02;19.40;99.90
12885;DHT22;6510;51.362;7.370;2022-09-12T08:36:28;19.50;99.90
12885;DHT22;6510;51.362;7.370;2022-09-12T08:38:59;19.50;99.90
12885;DHT22;6510;51.362;7.370;2022-09-12T08:52:56;20.40;99.90
12885;DHT22;6510;51.362;7.370;2022-09-12T08:55:39;20.10;99.90
12885;DHT22;6510;51.362;7.370;2022-09-12T08:58:25;20.10;99.90
12885;DHT22;6510;51.362;7.370;2022-09-12T09:12:25;20.60;99.90
12885;DHT22;6510;51.362;7.370;2022-09-12T09:17:47;20.70;99.90
12885;DHT22;6510;51.362;7.370;2022-09-12T09:20:44;20.40;99.90
12885;DHT22;6510;51.362;7.370;2022-09-12T09:23:22;21.00;99.90
12885;DHT22;6510;51.362;7.370;2022-09-12T09:26:05;21.30;99.90
12885;DHT22;6510;51.362;7.370;2022-09-12T09:28:46;21.40;99.90
12885;DHT22;6510;51.362;7.370;2022-09-12T09:31:18;22.40;99.90
12885;DHT22;6510;51.362;7.370;2022-09-12T09:33:54;22.60;99.90
12885;DHT22;6510;51.362;7.370;2022-09-12T09:36:22;22.10;99.90
12885;DHT22;6510;51.362;7.370;2022-09-12T09:39:05;21.70;99.90
12885;DHT22;6510;51.362;7.370;2022-09-12T09:41:53;21.50;99.90
12885;DHT22;6510;51.362;7.370;2022-09-12T09:44:22;21.00;99.90
12885;DHT22;6510;51.362;7.370;2022-09-12T09:46:53;21.60;99.90
12885;DHT22;6510;51.362;7.370;2022-09-12T09:49:19;22.30;99.90
12885;DHT22;6510;51.362;7.370;2022-09-12T09:51:46;23.80;99.90
12885;DHT22;6510;51.362;7.370;2022-09-12T09:54:22;23.70;99.90
12885;DHT22;6510;51.362;7.370;2022-09-12T09:56:49;24.10;99.90
12885;DHT22;6510;51.362;7.370;2022-09-12T09:59:27;25.00;99.90
12885;DHT22;6510;51.362;7.370;2022-09-12T10:01:58;25.10;99.90
12885;DHT22;6510;51.362;7.370;2022-09-12T10:04:34;25.00;99.90
12885;DHT22;6510;51.362;7.370;2022-09-12T10:07:02;25.00;99.90
12885;DHT22;6510;51.362;7.370;2022-09-12T10:09:30;24.60;99.90
12885;DHT22;6510;51.362;7.370;2022-09-12T10:12:18;23.90;99.90
12885;DHT22;6510;51.362;7.370;2022-09-12T10:15:02;23.10;99.90
12885;DHT22;6510;51.362;7.370;2022-09-12T10:19:57;24.70;99.90
12885;DHT22;6510;51.362;7.370;2022-09-12T10:22:26;24.30;99.90
12885;DHT22;6510;51.362;7.370;2022-09-12T10:24:55;24.90;99.90
12885;DHT22;6510;51.362;7.370;2022-09-12T10:27:24;24.40;99.90
12885;DHT22;6510;51.362;7.370;2022-09-12T10:30:03;23.70;99.90
12885;DHT22;6510;51.362;7.370;2022-09-12T10:32:35;23.70;99.90
12885;DHT22;6510;51.362;7.370;2022-09-12T10:35:23;24.90;99.90
12885;DHT22;6510;51.362;7.370;2022-09-12T10:37:56;25.80;99.90
12885;DHT22;6510;51.362;7.370;2022-09-12T10:40:29;24.70;99.90
12885;DHT22;6510;51.362;7.370;2022-09-12T10:42:58;24.60;99.90
12885;DHT22;6510;51.362;7.370;2022-09-12T10:45:31;24.70;99.90
12885;DHT22;6510;51.362;7.370;2022-09-12T10:48:21;24.90;99.90
12885;DHT22;6510;51.362;7.370;2022-09-12T10:50:48;25.70;99.90
12885;DHT22;6510;51.362;7.370;2022-09-12T10:53:17;25.70;99.90
12885;DHT22;6510;51.362;7.370;2022-09-12T11:04:24;26.40;99.90
12885;DHT22;6510;51.362;7.370;2022-09-12T11:20:28;25.80;99.90
12885;DHT22;6510;51.362;7.370;2022-09-12T11:26:02;26.30;99.90
12885;DHT22;6510;51.362;7.370;2022-09-12T11:28:37;23.30;99.90
12885;DHT22;6510;51.362;7.370;2022-09-12T11:33:52;26.70;99.90
12885;DHT22;6510;51.362;7.370;2022-09-12T11:36:32;25.10;99.90
12885;DHT22;6510;51.362;7.370;2022-09-12T11:39:21;25.30;99.90
12885;DHT22;6510;51.362;7.370;2022-09-12T11:41:56;25.70;99.90
12885;DHT22;6510;51.362;7.370;2022-09-12T11:44:36;25.60;99.90
12885;DHT22;6510;51.362;7.370;2022-09-12T11:47:06;26.40;99.90
12885;DHT22;6510;51.362;7.370;2022-09-12T11:49:38;26.80;99.90
12885;DHT22;6510;51.362;7.370;2022-09-12T11:54:47;25.90;99.90
12885;DHT22;6510;51.362;7.370;2022-09-12T11:59:51;25.70;99.90
12885;DHT22;6510;51.362;7.370;2022-09-12T12:02:28;26.40;99.90
12885;DHT22;6510;51.362;7.370;2022-09-12T12:07:41;27.30;99.90
12885;DHT22;6510;51.362;7.370;2022-09-12T12:10:22;26.50;99.90
12885;DHT22;6510;51.362;7.370;2022-09-12T12:12:50;27.00;99.90
12885;DHT22;6510;51.362;7.370;2022-09-12T12:15:17;26.90;99.90
12885;DHT22;6510;51.362;7.370;2022-09-12T12:17:43;25.90;99.90
12885;DHT22;6510;51.362;7.370;2022-09-12T12:20:15;26.30;99.90
12885;DHT22;6510;51.362;7.370;2022-09-12T12:22:52;26.30;99.90
12885;DHT22;6510;51.362;7.370;2022-09-12T12:27:51;26.60;99.90
12885;DHT22;6510;51.362;7.370;2022-09-12T12:36:03;26.50;99.90
12885;DHT22;6510;51.362;7.370;2022-09-12T12:38:34;27.40;99.90
12885;DHT22;6510;51.362;7.370;2022-09-12T12:41:41;26.20;99.90
12885;DHT22;6510;51.362;7.370;2022-09-12T12:47:31;25.80;99.90
12885;DHT22;6510;51.362;7.370;2022-09-12T12:50:02;26.30;99.90
12885;DHT22;6510;51.362;7.370;2022-09-12T12:52:31;26.00;99.90
12885;DHT22;6510;51.362;7.370;2022-09-12T12:55:02;26.30;99.90
12885;DHT22;6510;51.362;7.370;2022-09-12T12:57:47;26.80;99.90
12885;DHT22;6510;51.362;7.370;2022-09-12T13:05:37;26.20;99.90
12885;DHT22;6510;51.362;7.370;2022-09-12T13:10:49;26.20;99.90
12885;DHT22;6510;51.362;7.370;2022-09-12T13:16:03;26.00;99.90
12885;DHT22;6510;51.362;7.370;2022-09-12T13:21:17;26.50;99.90
12885;DHT22;6510;51.362;7.370;2022-09-12T13:23:45;26.60;99.90
12885;DHT22;6510;51.362;7.370;2022-09-12T13:26:24;27.10;99.90
12885;DHT22;6510;51.362;7.370;2022-09-12T13:29:21;26.60;99.90
12885;DHT22;6510;51.362;7.370;2022-09-12T13:32:00;26.70;99.90
12885;DHT22;6510;51.362;7.370;2022-09-12T13:34:33;25.90;99.90
12885;DHT22;6510;51.362;7.370;2022-09-12T13:39:47;25.20;99.90
12885;DHT22;6510;51.362;7.370;2022-09-12T13:42:40;26.10;99.90
12885;DHT22;6510;51.362;7.370;2022-09-12T13:47:41;26.30;99.90
12885;DHT22;6510;51.362;7.370;2022-09-12T13:50:12;26.20;99.90
12885;DHT22;6510;51.362;7.370;2022-09-12T13:52:38;26.20;99.90
12885;DHT22;6510;51.362;7.370;2022-09-12T13:55:09;26.40;99.90
12885;DHT22;6510;51.362;7.370;2022-09-12T13:57:55;26.10;99.90
12885;DHT22;6510;51.362;7.370;2022-09-12T14:00:21;26.40;99.90
12885;DHT22;6510;51.362;7.370;2022-09-12T14:02:47;26.60;99.90
12885;DHT22;6510;51.362;7.370;2022-09-12T14:05:19;26.50;99.90
12885;DHT22;6510;51.362;7.370;2022-09-12T14:07:56;26.40;99.90
12885;DHT22;6510;51.362;7.370;2022-09-12T14:10:33;26.50;99.90
12885;DHT22;6510;51.362;7.370;2022-09-12T14:13:00;26.50;99.90
12885;DHT22;6510;51.362;7.370;2022-09-12T14:15:29;25.90;99.90
12885;DHT22;6510;51.362;7.370;2022-09-12T14:17:58;25.70;99.90
12885;DHT22;6510;51.362;7.370;2022-09-12T14:20:26;25.90;99.90
12885;DHT22;6510;51.362;7.370;2022-09-12T14:22:59;25.50;99.90
12885;DHT22;6510;51.362;7.370;2022-09-12T14:25:26;25.90;99.90
12885;DHT22;6510;51.362;7.370;2022-09-12T14:27:57;25.90;99.90
12885;DHT22;6510;51.362;7.370;2022-09-12T14:30:29;25.70;99.90
12885;DHT22;6510;51.362;7.370;2022-09-12T14:35:38;25.10;99.90
12885;DHT22;6510;51.362;7.370;2022-09-12T14:40:57;25.20;99.90
12885;DHT22;6510;51.362;7.370;2022-09-12T14:45:57;24.90;99.90
12885;DHT22;6510;51.362;7.370;2022-09-12T14:48:25;24.70;99.90
12885;DHT22;6510;51.362;7.370;2022-09-12T14:50:52;24.50;99.90
12885;DHT22;6510;51.362;7.370;2022-09-12T14:58:29;24.20;99.90
12885;DHT22;6510;51.362;7.370;2022-09-12T15:03:35;23.80;99.90
12885;DHT22;6510;51.362;7.370;2022-09-12T15:06:03;24.10;99.90
12885;DHT22;6510;51.362;7.370;2022-09-12T15:08:29;24.10;99.90
12885;DHT22;6510;51.362;7.370;2022-09-12T15:10:56;23.70;99.90
12885;DHT22;6510;51.362;7.370;2022-09-12T15:13:27;23.80;99.90
12885;DHT22;6510;51.362;7.370;2022-09-12T15:15:57;23.70;99.90
12885;DHT22;6510;51.362;7.370;2022-09-12T15:18:25;23.70;99.90
12885;DHT22;6510;51.362;7.370;2022-09-12T15:20:54;23.60;99.90
12885;DHT22;6510;51.362;7.370;2022-09-12T15:26:12;23.50;99.90
12885;DHT22;6510;51.362;7.370;2022-09-12T15:28:38;23.50;99.90
12885;DHT22;6510;51.362;7.370;2022-09-12T15:31:18;23.30;99.90
12885;DHT22;6510;51.362;7.370;2022-09-12T15:33:46;23.40;99.90
12885;DHT22;6510;51.362;7.370;2022-09-12T15:36:14;23.60;99.90
12885;DHT22;6510;51.362;7.370;2022-09-12T15:38:41;23.50;99.90
12885;DHT22;6510;51.362;7.370;2022-09-12T15:41:21;23.60;99.90
12885;DHT22;6510;51.362;7.370;2022-09-12T15:43:48;23.40;99.90
12885;DHT22;6510;51.362;7.370;2022-09-12T15:46:15;23.30;99.90
12885;DHT22;6510;51.362;7.370;2022-09-12T15:48:41;23.10;99.90
12885;DHT22;6510;51.362;7.370;2022-09-12T15:51:14;22.90;99.90
12885;DHT22;6510;51.362;7.370;2022-09-12T15:53:40;22.90;99.90
12885;DHT22;6510;51.362;7.370;2022-09-12T15:56:06;22.90;99.90
12885;DHT22;6510;51.362;7.370;2022-09-12T15:58:31;22.90;99.90
12885;DHT22;6510;51.362;7.370;2022-09-12T16:00:57;22.80;99.90
12885;DHT22;6510;51.362;7.370;2022-09-12T16:03:25;22.70;99.90
12885;DHT22;6510;51.362;7.370;2022-09-12T16:06:02;22.60;99.90
12885;DHT22;6510;51.362;7.370;2022-09-12T16:08:29;22.60;99.90
12885;DHT22;6510;51.362;7.370;2022-09-12T16:11:12;22.70;99.90
12885;DHT22;6510;51.362;7.370;2022-09-12T16:13:41;22.60;99.90
12885;DHT22;6510;51.362;7.370;2022-09-12T16:16:08;22.50;99.90
12885;DHT22;6510;51.362;7.370;2022-09-12T16:18:34;22.50;99.90
12885;DHT22;6510;51.362;7.370;2022-09-12T16:20:59;22.40;99.90
12885;DHT22;6510;51.362;7.370;2022-09-12T16:23:25;22.30;99.90
12885;DHT22;6510;51.362;7.370;2022-09-12T16:26:00;22.20;99.90
12885;DHT22;6510;51.362;7.370;2022-09-12T16:28:27;22.20;99.90
12885;DHT22;6510;51.362;7.370;2022-09-12T16:30:57;22.20;99.90
12885;DHT22;6510;51.362;7.370;2022-09-12T16:33:24;22.20;99.90
12885;DHT22;6510;51.362;7.370;2022-09-12T16:35:50;22.00;99.90
12885;DHT22;6510;51.362;7.370;2022-09-12T16:38:20;22.00;99.90
12885;DHT22;6510;51.362;7.370;2022-09-12T16:40:46;22.00;99.90
12885;DHT22;6510;51.362;7.370;2022-09-12T16:43:11;21.90;99.90
12885;DHT22;6510;51.362;7.370;2022-09-12T16:45:38;21.90;99.90
12885;DHT22;6510;51.362;7.370;2022-09-12T16:48:04;21.80;99.90
12885;DHT22;6510;51.362;7.370;2022-09-12T16:50:29;21.80;99.90
12885;DHT22;6510;51.362;7.370;2022-09-12T16:52:55;21.70;99.90
12885;DHT22;6510;51.362;7.370;2022-09-12T16:55:20;21.80;99.90
12885;DHT22;6510;51.362;7.370;2022-09-12T16:57:46;21.80;99.90
12885;DHT22;6510;51.362;7.370;2022-09-12T17:00:14;21.80;99.90
12885;DHT22;6510;51.362;7.370;2022-09-12T17:02:39;21.80;99.90
12885;DHT22;6510;51.362;7.370;2022-09-12T17:05:05;21.70;99.90
12885;DHT22;6510;51.362;7.370;2022-09-12T17:07:31;21.70;99.90
12885;DHT22;6510;51.362;7.370;2022-09-12T17:09:58;21.70;99.90
12885;DHT22;6510;51.362;7.370;2022-09-12T17:12:24;21.70;99.90
12885;DHT22;6510;51.362;7.370;2022-09-12T17:14:50;21.60;99.90
12885;DHT22;6510;51.362;7.370;2022-09-12T17:17:16;21.50;99.90
12885;DHT22;6510;51.362;7.370;2022-09-12T17:19:41;21.60;99.90
12885;DHT22;6510;51.362;7.370;2022-09-12T17:22:08;21.50;99.90
12885;DHT22;6510;51.362;7.370;2022-09-12T17:24:33;21.40;99.90
12885;DHT22;6510;51.362;7.370;2022-09-12T17:26:59;21.50;99.90
12885;DHT22;6510;51.362;7.370;2022-09-12T17:29:25;21.30;99.90
12885;DHT22;6510;51.362;7.370;2022-09-12T17:31:50;21.20;99.90
12885;DHT22;6510;51.362;7.370;2022-09-12T17:34:16;21.20;99.90
12885;DHT22;6510;51.362;7.370;2022-09-12T17:36:43;21.10;99.90
12885;DHT22;6510;51.362;7.370;2022-09-12T17:39:09;21.00;99.90
12885;DHT22;6510;51.362;7.370;2022-09-12T17:41:36;21.00;99.90
12885;DHT22;6510;51.362;7.370;2022-09-12T17:44:02;20.90;99.90
12885;DHT22;6510;51.362;7.370;2022-09-12T17:46:34;20.70;99.90
12885;DHT22;6510;51.362;7.370;2022-09-12T17:49:00;20.60;99.90
12885;DHT22;6510;51.362;7.370;2022-09-12T17:51:28;20.60;99.90
12885;DHT22;6510;51.362;7.370;2022-09-12T17:53:59;20.50;99.90
12885;DHT22;6510;51.362;7.370;2022-09-12T17:56:29;20.40;99.90
12885;DHT22;6510;51.362;7.370;2022-09-12T17:58:56;20.40;99.90
12885;DHT22;6510;51.362;7.370;2022-09-12T18:01:22;20.40;99.90
12885;DHT22;6510;51.362;7.370;2022-09-12T18:04:10;20.20;99.90
12885;DHT22;6510;51.362;7.370;2022-09-12T18:06:36;20.20;99.90
12885;DHT22;6510;51.362;7.370;2022-09-12T18:09:03;20.10;99.90
12885;DHT22;6510;51.362;7.370;2022-09-12T18:11:29;20.10;99.90
12885;DHT22;6510;51.362;7.370;2022-09-12T18:13:57;20.00;99.90
12885;DHT22;6510;51.362;7.370;2022-09-12T18:16:22;20.10;99.90
12885;DHT22;6510;51.362;7.370;2022-09-12T18:18:48;20.10;99.90
12885;DHT22;6510;51.362;7.370;2022-09-12T18:21:15;20.00;99.90
12885;DHT22;6510;51.362;7.370;2022-09-12T18:23:41;19.90;99.90
12885;DHT22;6510;51.362;7.370;2022-09-12T18:26:09;19.90;99.90
12885;DHT22;6510;51.362;7.370;2022-09-12T18:28:36;19.90;99.90
12885;DHT22;6510;51.362;7.370;2022-09-12T18:31:03;19.70;99.90
12885;DHT22;6510;51.362;7.370;2022-09-12T18:33:29;20.00;99.90
12885;DHT22;6510;51.362;7.370;2022-09-12T18:35:54;20.00;99.90
12885;DHT22;6510;51.362;7.370;2022-09-12T18:38:20;19.80;99.90
12885;DHT22;6510;51.362;7.370;2022-09-12T18:40:46;19.70;99.90